Terminal Aerodrome Forecast
Issued by NWS

Home | Current Version | Previous Version | Text Only | Print | Product List | Glossary On
Versions: 1 2 3 4 5 6 7 8 9 10 11 12 13
000
FTUS46 KSEW 252322
TAFOLM
TAF
KOLM 252322Z 2600/2624 03005KT P6SM SKC
     FM260400 VRB03KT P6SM SKC
     FM261200 20004KT P6SM OVC010
     FM261700 23006KT P6SM BKN015
     FM261900 25006KT P6SM SKC=

USA.gov is the U.S. government's official web portal to all federal, state and local government web resources and services.